Airfield :
LOGIN :

Register | Disclaimer

   EN    FR    IT 

 










Legend :    VFR   Marginal VFR   IFR   Intensive IFR   Very Intensive IFR
Visi :
Ceiling :
>= 8 km
>= 3000ft
5 to 8 km
1000 to 3000 ft
1500m to 5 km
500 to 1000 ft
800 to 1500m
200 to 500 ft
< 800m
< 200 ft
Symbols :   Thunderstorms  Fog  Heavy snow  Heavy precipitations  Wind > 20 kt
SIGMETs :     Misc.  Thunderstorms  Icing  Turbulence  Mountain Waves  Volcanic Ashes






- Airport Elevation : 412 ft
- IATA code : ORE


LFOJ - Orleans

CURRENT METAR :
  • 130900Z AUTO 20011KT 9999 BKN022 BKN120 23/17 Q1013 TEMPO VRB15G30KT 2000 TSRA SCT008 BKN014CB

EXPIRED METARs :
  • 130830Z AUTO 17007KT CAVOK 22/18 Q1013 TEMPO VRB15G30KT 2000 TSRA BKN014CB
  • 130800Z AUTO 17006KT 9999 FEW010 21/17 Q1013 TEMPO VRB15G30KT 2000 TSRA BKN014CB
  • 130730Z AUTO 16005KT 130V190 9999 FEW011 21/18 Q1013 TEMPO VRB15G30KT 2000 TSRA BKN014CB
  • 130700Z AUTO 17006KT CAVOK 20/18 Q1013 TEMPO 4000 SHRA BKN015TCU
  • 130630Z AUTO 18007KT CAVOK 20/18 Q1013 TEMPO 4000 SHRA BKN015TCU

TAF TAF LFOJ
Valid from the 13 at 09:00 until the 14 at 09:00 UTC


130800Z 1309/1409 17008KT CAVOK
TEMPO 1309/1407 4000 SHRA SCT010 BKN015TCU
PROB40
TEMPO 1309/1319 VRB15G30KT 2000 TSRA SCT008 BKN014CB
BECMG 1407/1409 BKN015



MET'MAP, your aeronautical weather chart ! - Copyright ORBIFLY December 2007 - Disclaimer

ORBIFLY MET'MAP TEAM :

Programming & Development : Alexandra Zaïnal
Concept & original design : Baudouin d'Aumeries
Assistance for programming : Marc-Olivier Méhu
Technical & hardware support : Manuel Goepfert

Contact : metmap@orbifly.com




SOURCES & CREDITS :

   NOAA